createdAt,value
2019-03-04T00:01:13.023Z,5.43
2019-03-04T00:03:42.606Z,5.70
2019-03-04T00:06:12.490Z,4.53
2019-03-04T00:08:43.430Z,4.40
2019-03-04T00:11:12.842Z,4.27
2019-03-04T00:13:42.340Z,5.37
2019-03-04T00:16:12.020Z,5.37
2019-03-04T00:18:44.412Z,6.70
2019-03-04T00:21:13.822Z,4.83
2019-03-04T00:23:43.281Z,7.17
2019-03-04T00:26:12.796Z,5.07
2019-03-04T00:28:43.382Z,4.50
2019-03-04T00:31:12.782Z,4.70
2019-03-04T00:33:42.219Z,5.03
2019-03-04T00:36:11.648Z,7.80
2019-03-04T00:38:41.060Z,5.67
2019-03-04T00:41:11.648Z,4.40
2019-03-04T00:43:41.054Z,4.00
2019-03-04T00:46:10.490Z,4.40
2019-03-04T00:48:39.894Z,5.47
2019-03-04T00:51:09.321Z,6.50
2019-03-04T00:53:38.732Z,4.27
2019-03-04T00:56:08.162Z,4.27
2019-03-04T00:58:37.574Z,5.13
2019-03-04T01:01:07.082Z,4.40
2019-03-04T01:03:36.519Z,4.90
2019-03-04T01:06:06.000Z,3.63
2019-03-04T01:08:35.456Z,3.77
2019-03-04T01:11:06.041Z,5.03
2019-03-04T01:13:35.481Z,3.57
2019-03-04T01:16:05.089Z,5.57
2019-03-04T01:18:34.597Z,3.87
2019-03-04T01:21:04.091Z,3.87
2019-03-04T01:23:33.518Z,3.90
2019-03-04T01:26:03.014Z,3.63
2019-03-04T01:28:32.443Z,4.10
2019-03-04T01:31:01.851Z,3.33
2019-03-04T01:33:31.279Z,3.60
2019-03-04T01:36:00.712Z,3.40
2019-03-04T01:38:31.191Z,3.23
2019-03-04T01:41:00.632Z,3.77
2019-03-04T01:43:30.045Z,3.53
2019-03-04T01:45:59.471Z,3.70
2019-03-04T01:48:28.878Z,3.57
2019-03-04T01:50:58.309Z,3.97
2019-03-04T01:53:27.793Z,3.30
2019-03-04T01:55:57.247Z,4.50
2019-03-04T01:58:26.645Z,3.77
2019-03-04T02:00:56.076Z,4.03
2019-03-04T02:03:25.523Z,3.93
2019-03-04T02:05:54.925Z,3.80
2019-03-04T02:08:24.351Z,3.33
2019-03-04T02:10:53.769Z,3.57
2019-03-04T02:13:23.211Z,3.70
2019-03-04T02:15:52.635Z,3.50
2019-03-04T02:18:22.133Z,3.63
2019-03-04T02:20:51.637Z,3.43
2019-03-04T02:23:21.069Z,3.70
2019-03-04T02:26:05.714Z,3.60
2019-03-04T02:28:35.197Z,3.63
2019-03-04T02:31:04.888Z,4.40
2019-03-04T02:33:34.725Z,3.73
2019-03-04T02:36:04.269Z,3.37
2019-03-04T02:38:33.709Z,3.27
2019-03-04T02:41:03.130Z,2.90
2019-03-04T02:43:32.640Z,3.17
2019-03-04T02:46:02.131Z,3.10
2019-03-04T02:48:31.635Z,2.67
2019-03-04T02:51:01.040Z,4.20
2019-03-04T02:53:31.664Z,3.50
2019-03-04T02:56:01.085Z,3.07
2019-03-04T02:58:30.498Z,3.23
2019-03-04T03:00:59.931Z,2.80
2019-03-04T03:03:29.437Z,3.77
2019-03-04T03:05:58.905Z,2.90
2019-03-04T03:08:28.337Z,3.80
2019-03-04T03:10:57.769Z,3.70
2019-03-04T03:13:27.272Z,4.20
2019-03-04T03:15:56.713Z,4.00
2019-03-04T03:18:26.115Z,5.10
2019-03-04T03:20:55.605Z,4.03
2019-03-04T03:23:25.397Z,3.70
2019-03-04T03:25:54.812Z,4.20
2019-03-04T03:28:24.245Z,3.70
2019-03-04T03:30:53.749Z,4.50
2019-03-04T03:33:23.254Z,3.67
2019-03-04T03:35:52.673Z,3.67
2019-03-04T03:38:23.070Z,3.40
2019-03-04T03:40:52.478Z,3.70
2019-03-04T03:43:21.977Z,3.90
2019-03-04T03:45:51.377Z,3.80
2019-03-04T03:48:20.879Z,3.67
2019-03-04T03:50:50.354Z,4.03
2019-03-04T03:53:19.716Z,3.50
2019-03-04T03:55:49.136Z,4.03
2019-03-04T03:58:18.635Z,3.80
2019-03-04T04:00:48.138Z,3.40
2019-03-04T04:03:18.521Z,3.53
2019-03-04T04:05:47.943Z,4.17
2019-03-04T04:08:17.458Z,6.13
2019-03-04T04:10:46.932Z,6.20
2019-03-04T04:13:16.373Z,3.73
2019-03-04T04:15:45.798Z,3.30
2019-03-04T04:18:15.453Z,3.90
2019-03-04T04:20:45.649Z,3.53
2019-03-04T04:23:15.077Z,3.60
2019-03-04T04:25:44.514Z,3.23
2019-03-04T04:28:13.925Z,3.43
2019-03-04T04:30:43.354Z,3.27
2019-03-04T04:33:12.766Z,3.57
2019-03-04T04:35:42.273Z,3.27
2019-03-04T04:38:11.684Z,3.83
2019-03-04T04:40:41.125Z,3.63
2019-03-04T04:43:10.603Z,3.20
2019-03-04T04:45:40.114Z,3.30
2019-03-04T04:48:09.587Z,3.87
2019-03-04T04:50:42.140Z,3.47
2019-03-04T04:53:12.135Z,2.90
2019-03-04T04:55:41.547Z,3.33
2019-03-04T04:58:10.993Z,3.60
2019-03-04T05:00:40.408Z,5.37
2019-03-04T05:03:09.843Z,3.10
2019-03-04T05:05:39.327Z,2.70
2019-03-04T05:08:08.839Z,2.87
2019-03-04T05:10:38.282Z,3.10
2019-03-04T05:13:07.706Z,3.83
2019-03-04T05:15:37.266Z,3.17
2019-03-04T05:18:06.713Z,2.37
2019-03-04T05:20:36.684Z,3.10
2019-03-04T05:23:06.137Z,2.73
2019-03-04T05:25:35.556Z,2.60
2019-03-04T05:28:05.055Z,2.83
2019-03-04T05:30:34.644Z,3.20
2019-03-04T05:33:04.060Z,2.33
2019-03-04T05:35:33.700Z,2.63
2019-03-04T05:38:03.216Z,2.30
2019-03-04T05:40:32.652Z,2.10
2019-03-04T05:43:02.091Z,2.20
2019-03-04T05:45:31.530Z,2.13
2019-03-04T05:48:00.944Z,1.90
2019-03-04T05:50:30.446Z,1.70
2019-03-04T05:52:59.860Z,1.83
2019-03-04T05:55:29.300Z,1.63
2019-03-04T05:57:58.732Z,1.53
2019-03-04T06:00:32.819Z,1.90
2019-03-04T06:03:04.941Z,1.70
2019-03-04T06:05:34.353Z,1.80
2019-03-04T06:08:05.440Z,2.20
2019-03-04T06:10:34.905Z,1.80
2019-03-04T06:13:04.751Z,1.50
2019-03-04T06:15:34.261Z,2.00
2019-03-04T06:18:05.237Z,6.67
2019-03-04T06:20:34.725Z,1.67
2019-03-04T06:23:04.224Z,1.80
2019-03-04T06:25:34.355Z,1.23
2019-03-04T06:28:03.847Z,1.60
2019-03-04T06:30:33.850Z,1.73
2019-03-04T06:33:03.277Z,1.93
2019-03-04T06:35:33.779Z,1.90
2019-03-04T06:38:03.318Z,1.40
2019-03-04T06:40:34.301Z,3.03
2019-03-04T06:43:04.707Z,1.90
2019-03-04T06:45:35.767Z,1.20
2019-03-04T06:48:05.251Z,1.10
2019-03-04T06:50:50.023Z,1.17
2019-03-04T06:53:46.553Z,1.60
2019-03-04T06:56:37.179Z,1.20
2019-03-04T06:59:43.079Z,1.50
2019-03-04T07:02:20.985Z,1.17
2019-03-04T07:05:05.423Z,1.40
2019-03-04T07:07:34.861Z,1.23
2019-03-04T07:10:07.319Z,1.13
2019-03-04T07:12:36.839Z,1.83
2019-03-04T07:15:08.203Z,1.50
2019-03-04T07:17:37.786Z,1.30
2019-03-04T07:20:18.492Z,1.50
2019-03-04T07:22:48.591Z,1.47
2019-03-04T07:25:18.100Z,1.20
2019-03-04T07:27:47.594Z,1.43
2019-03-04T07:30:19.339Z,2.20
2019-03-04T07:32:48.755Z,1.43
2019-03-04T07:35:18.323Z,1.03
2019-03-04T07:37:49.277Z,3.13
2019-03-04T07:40:20.365Z,1.27
2019-03-04T07:42:49.813Z,1.17
2019-03-04T07:45:19.260Z,1.03
2019-03-04T07:47:51.908Z,1.60
2019-03-04T07:50:22.980Z,1.53
2019-03-04T07:52:57.476Z,2.63
2019-03-04T07:55:26.881Z,1.03
2019-03-04T07:57:56.312Z,1.27
2019-03-04T08:00:25.782Z,1.60
2019-03-04T08:02:55.214Z,1.40
2019-03-04T08:05:24.700Z,1.30
2019-03-04T08:08:02.997Z,1.50
2019-03-04T08:10:38.095Z,3.23
2019-03-04T08:13:19.586Z,1.30
2019-03-04T08:15:48.991Z,1.40
2019-03-04T08:18:18.504Z,1.10
2019-03-04T08:20:47.984Z,1.50
2019-03-04T08:23:17.631Z,1.67
2019-03-04T08:25:47.299Z,3.40
2019-03-04T08:28:16.944Z,1.60
2019-03-04T08:30:46.532Z,2.27
2019-03-04T08:33:16.082Z,3.80
2019-03-04T08:35:45.527Z,4.37
2019-03-04T08:38:15.036Z,2.67
2019-03-04T08:40:44.541Z,3.60
2019-03-04T08:43:13.944Z,2.73
2019-03-04T08:45:43.442Z,1.37
2019-03-04T08:48:12.922Z,5.17
2019-03-04T08:50:42.418Z,1.57
2019-03-04T08:53:11.849Z,1.10
2019-03-04T08:55:41.262Z,0.70
2019-03-04T08:58:10.694Z,1.93
2019-03-04T09:00:40.165Z,0.93
2019-03-04T09:03:09.590Z,0.37
2019-03-04T09:05:39.100Z,0.30
2019-03-04T09:08:08.861Z,0.40
2019-03-04T09:10:38.693Z,0.97
2019-03-04T09:13:08.263Z,0.30
2019-03-04T09:15:38.809Z,0.83
2019-03-04T09:18:08.443Z,1.20
2019-03-04T09:20:37.856Z,1.03
2019-03-04T09:23:07.445Z,0.70
2019-03-04T09:25:48.901Z,0.30
2019-03-04T09:28:18.466Z,0.40
2019-03-04T09:30:47.882Z,0.97
2019-03-04T09:33:17.384Z,1.80
2019-03-04T09:35:46.786Z,0.90
2019-03-04T09:38:16.222Z,0.50
2019-03-04T09:40:45.616Z,0.87
2019-03-04T09:43:15.114Z,2.00
2019-03-04T09:45:47.130Z,1.70
2019-03-04T09:48:16.644Z,0.90
2019-03-04T09:50:46.075Z,0.50
2019-03-04T09:53:15.622Z,0.50
2019-03-04T09:55:45.116Z,0.97
2019-03-04T09:58:14.590Z,1.70
2019-03-04T10:01:28.882Z,0.60
2019-03-04T10:04:04.179Z,0.50
2019-03-04T10:06:46.550Z,1.57
2019-03-04T10:09:41.697Z,0.60
2019-03-04T10:12:36.978Z,0.67
2019-03-04T10:15:24.513Z,1.87
2019-03-04T10:17:58.647Z,0.53
2019-03-04T10:20:33.816Z,1.53
2019-03-04T10:23:23.082Z,2.47
2019-03-04T10:26:22.322Z,1.13
2019-03-04T10:28:48.531Z,0.80
2019-03-04T10:31:43.795Z,3.07
2019-03-04T10:34:38.577Z,1.40
2019-03-04T10:37:27.714Z,0.93
2019-03-04T10:40:35.181Z,2.37
2019-03-04T10:43:25.513Z,0.80
2019-03-04T10:46:03.831Z,1.57
2019-03-04T10:48:35.010Z,0.80
2019-03-04T10:51:04.659Z,0.83
2019-03-04T10:53:34.088Z,1.03
2019-03-04T10:56:03.653Z,0.70
2019-03-04T10:58:33.095Z,0.93
2019-03-04T11:01:02.583Z,1.90
2019-03-04T11:03:32.098Z,1.23
2019-03-04T11:06:01.569Z,2.13
2019-03-04T11:08:31.077Z,0.60
2019-03-04T11:11:02.019Z,2.53
2019-03-04T11:13:31.499Z,0.63
2019-03-04T11:16:01.005Z,0.80
2019-03-04T11:18:30.481Z,0.50
2019-03-04T11:21:00.096Z,1.30
2019-03-04T11:23:30.783Z,3.10
2019-03-04T11:26:00.286Z,0.50
2019-03-04T11:28:29.971Z,1.93
2019-03-04T11:30:59.397Z,2.73
2019-03-04T11:33:28.816Z,1.97
2019-03-04T11:35:58.270Z,0.70
2019-03-04T11:38:42.600Z,1.70
2019-03-04T11:41:14.831Z,1.60
2019-03-04T11:43:44.407Z,1.33
2019-03-04T11:46:14.029Z,1.23
2019-03-04T11:48:43.556Z,1.77
2019-03-04T11:51:12.968Z,1.93
2019-03-04T11:53:42.484Z,1.57
2019-03-04T11:56:11.907Z,1.80
2019-03-04T11:58:41.422Z,1.43
2019-03-04T12:01:15.352Z,2.87
2019-03-04T12:03:44.902Z,1.10
2019-03-04T12:06:14.340Z,5.43
2019-03-04T12:08:43.764Z,1.90
2019-03-04T12:11:13.377Z,1.90
2019-03-04T12:13:42.858Z,1.77
2019-03-04T12:16:12.370Z,4.50
2019-03-04T12:18:41.914Z,1.00
2019-03-04T12:21:11.508Z,1.33
2019-03-04T12:23:40.998Z,0.87
2019-03-04T12:26:10.491Z,3.10
2019-03-04T12:28:40.044Z,0.77
2019-03-04T12:31:09.546Z,1.73
2019-03-04T12:33:38.998Z,1.00
2019-03-04T12:36:08.481Z,0.50
2019-03-04T12:38:37.994Z,1.70
2019-03-04T12:41:07.553Z,1.13
2019-03-04T12:43:36.978Z,1.73
2019-03-04T12:46:06.483Z,1.27
2019-03-04T12:48:35.987Z,0.50
2019-03-04T12:51:05.526Z,2.20
2019-03-04T12:53:37.472Z,0.60
2019-03-04T12:56:06.221Z,0.53
2019-03-04T12:58:35.662Z,0.57
2019-03-04T13:01:05.304Z,0.97
2019-03-04T13:03:34.809Z,0.60
2019-03-04T13:06:05.909Z,0.57
2019-03-04T13:08:35.418Z,0.30
2019-03-04T13:11:04.899Z,0.37
2019-03-04T13:13:34.425Z,0.20
2019-03-04T13:16:04.265Z,0.20
2019-03-04T13:18:33.823Z,0.20
2019-03-04T13:21:03.306Z,0.30
2019-03-04T13:23:33.775Z,0.10
2019-03-04T13:26:03.349Z,0.20
2019-03-04T13:28:32.759Z,0.20
2019-03-04T13:31:02.273Z,0.87
2019-03-04T13:33:31.725Z,0.40
2019-03-04T13:36:04.017Z,0.30
2019-03-04T13:38:33.462Z,0.20
2019-03-04T13:41:05.663Z,0.60
2019-03-04T13:43:38.333Z,0.67
2019-03-04T13:46:07.845Z,0.77
2019-03-04T13:48:38.408Z,0.27
2019-03-04T13:51:10.651Z,0.30
2019-03-04T13:53:40.084Z,0.83
2019-03-04T13:56:09.608Z,1.87
2019-03-04T13:58:39.007Z,0.93
2019-03-04T14:01:12.091Z,0.50
2019-03-04T14:03:41.495Z,0.40
2019-03-04T14:06:11.017Z,0.30
2019-03-04T14:08:40.591Z,0.50
2019-03-04T14:11:10.101Z,1.30
2019-03-04T14:13:42.089Z,0.70
2019-03-04T14:16:11.499Z,0.70
2019-03-04T14:18:40.939Z,1.10
2019-03-04T14:21:10.359Z,1.00
2019-03-04T14:23:39.782Z,0.90
2019-03-04T14:26:10.337Z,1.73
2019-03-04T14:28:39.781Z,1.20
2019-03-04T14:31:11.086Z,0.90
2019-03-04T14:33:42.347Z,1.33
2019-03-04T14:36:12.094Z,0.90
2019-03-04T14:38:43.046Z,1.40
2019-03-04T14:41:12.482Z,1.00
2019-03-04T14:43:41.886Z,0.90
2019-03-04T14:46:15.297Z,1.10
2019-03-04T14:48:44.894Z,1.20
2019-03-04T14:51:14.308Z,1.00
2019-03-04T14:53:44.800Z,2.97
2019-03-04T14:56:22.107Z,1.40
2019-03-04T14:58:45.439Z,1.50
2019-03-04T15:01:14.981Z,2.07
2019-03-04T15:03:44.402Z,1.50
2019-03-04T15:06:15.460Z,1.70
2019-03-04T15:08:44.876Z,2.03
2019-03-04T15:11:14.312Z,2.13
2019-03-04T15:13:43.860Z,2.30
2019-03-04T15:16:13.297Z,2.20
2019-03-04T15:18:42.859Z,2.27
2019-03-04T15:21:12.525Z,2.50
2019-03-04T15:23:41.992Z,2.37
2019-03-04T15:26:11.407Z,2.23
2019-03-04T15:28:40.904Z,3.13
2019-03-04T15:31:10.536Z,3.00
2019-03-04T15:33:40.029Z,2.50
2019-03-04T15:36:09.457Z,2.70
2019-03-04T15:38:38.933Z,2.50
2019-03-04T15:41:08.401Z,3.20
2019-03-04T15:43:37.805Z,2.97
2019-03-04T15:46:14.433Z,3.13
2019-03-04T15:48:43.843Z,2.93
2019-03-04T15:51:13.277Z,2.23
2019-03-04T15:53:43.546Z,2.67
2019-03-04T15:56:13.171Z,2.80
2019-03-04T15:58:42.577Z,2.87
2019-03-04T16:01:12.721Z,4.73
2019-03-04T16:03:42.218Z,2.97
2019-03-04T16:06:14.546Z,3.27
2019-03-04T16:08:44.104Z,2.57
2019-03-04T16:11:13.655Z,2.20
2019-03-04T16:13:52.596Z,2.50
2019-03-04T16:16:14.492Z,2.30
2019-03-04T16:18:44.062Z,2.33
2019-03-04T16:21:13.613Z,2.23
2019-03-04T16:23:43.120Z,2.10
2019-03-04T16:26:12.544Z,3.73
2019-03-04T16:28:42.048Z,2.53
2019-03-04T16:31:11.525Z,2.17
2019-03-04T16:33:41.110Z,2.53
2019-03-04T16:36:10.594Z,3.03
2019-03-04T16:38:40.114Z,4.77
2019-03-04T16:41:09.596Z,3.43
2019-03-04T16:43:39.099Z,3.87
2019-03-04T16:46:08.597Z,4.17
2019-03-04T16:48:38.036Z,3.20
2019-03-04T16:51:07.552Z,5.20
2019-03-04T16:53:36.969Z,3.33
2019-03-04T16:56:07.364Z,2.53
2019-03-04T16:58:36.787Z,2.23
2019-03-04T17:01:06.281Z,4.23
2019-03-04T17:03:35.777Z,6.33
2019-03-04T17:06:06.312Z,5.23
2019-03-04T17:08:35.954Z,4.27
2019-03-04T17:11:05.524Z,2.73
2019-03-04T17:13:34.997Z,3.17
2019-03-04T17:16:04.640Z,3.70
2019-03-04T17:18:34.337Z,2.70
2019-03-04T17:21:03.812Z,3.27
2019-03-04T17:23:33.372Z,6.30
2019-03-04T17:26:02.771Z,3.50
2019-03-04T17:28:32.264Z,3.33
2019-03-04T17:31:01.846Z,5.80
2019-03-04T17:33:31.402Z,2.70
2019-03-04T17:36:00.964Z,7.07
2019-03-04T17:38:30.808Z,4.00
2019-03-04T17:41:00.238Z,4.40
2019-03-04T17:43:29.721Z,3.13
2019-03-04T17:45:59.298Z,2.40
2019-03-04T17:48:29.151Z,4.10
2019-03-04T17:50:59.092Z,5.50
2019-03-04T17:53:28.569Z,5.00
2019-03-04T17:55:58.197Z,1.97
2019-03-04T17:58:27.665Z,4.80
2019-03-04T18:00:57.735Z,4.13
2019-03-04T18:03:27.221Z,4.17
2019-03-04T18:05:56.799Z,7.07
2019-03-04T18:08:26.218Z,4.83
2019-03-04T18:10:55.742Z,2.23
2019-03-04T18:13:25.145Z,3.27
2019-03-04T18:15:54.799Z,1.93
2019-03-04T18:18:24.374Z,4.40
2019-03-04T18:20:53.923Z,4.00
2019-03-04T18:23:23.405Z,2.00
2019-03-04T18:26:04.637Z,2.43
2019-03-04T18:29:01.282Z,5.20
2019-03-04T18:31:34.038Z,4.40
2019-03-04T18:34:18.551Z,2.43
2019-03-04T18:37:05.683Z,5.43
2019-03-04T18:39:50.232Z,4.33
2019-03-04T18:42:37.933Z,5.37
2019-03-04T18:45:20.262Z,4.40
2019-03-04T18:48:14.263Z,2.80
2019-03-04T18:50:43.906Z,4.27
2019-03-04T18:53:13.506Z,4.03
2019-03-04T18:55:43.002Z,2.60
2019-03-04T18:58:12.538Z,2.77
2019-03-04T19:00:43.235Z,6.73
2019-03-04T19:03:12.897Z,3.60
2019-03-04T19:05:42.568Z,2.20
2019-03-04T19:08:12.118Z,2.33
2019-03-04T19:10:41.706Z,4.40
2019-03-04T19:13:11.266Z,6.73
2019-03-04T19:15:40.850Z,6.73
2019-03-04T19:18:10.406Z,4.70
2019-03-04T19:20:39.985Z,6.80
2019-03-04T19:23:09.563Z,3.20
2019-03-04T19:25:40.142Z,7.57
2019-03-04T19:28:10.695Z,7.30
2019-03-04T19:30:40.171Z,5.60
2019-03-04T19:33:09.663Z,7.60
2019-03-04T19:35:39.298Z,4.73
2019-03-04T19:38:09.072Z,3.83
2019-03-04T19:40:38.549Z,5.87
2019-03-04T19:43:08.128Z,5.20
2019-03-04T19:45:38.030Z,5.20
2019-03-04T19:48:07.904Z,8.77
2019-03-04T19:50:37.404Z,5.40
2019-03-04T19:53:07.116Z,6.80
2019-03-04T19:55:36.623Z,4.43
2019-03-04T19:58:06.266Z,4.50
2019-03-04T20:00:35.894Z,5.67
2019-03-04T20:03:07.117Z,4.37
2019-03-04T20:05:43.542Z,4.93
2019-03-04T20:08:11.383Z,5.03
2019-03-04T20:10:42.103Z,3.47
2019-03-04T20:13:11.691Z,3.67
2019-03-04T20:15:41.403Z,5.00
2019-03-04T20:18:11.021Z,5.07
2019-03-04T20:20:41.699Z,9.37
2019-03-04T20:23:11.345Z,4.23
2019-03-04T20:25:40.895Z,6.07
2019-03-04T20:28:11.885Z,7.53
2019-03-04T20:30:41.529Z,4.33
2019-03-04T20:33:12.118Z,6.63
2019-03-04T20:35:41.659Z,4.20
2019-03-04T20:38:32.319Z,5.63
2019-03-04T20:41:02.312Z,4.20
2019-03-04T20:43:31.891Z,3.93
2019-03-04T20:46:01.361Z,6.30
2019-03-04T20:48:30.809Z,4.43
2019-03-04T20:51:00.376Z,4.87
2019-03-04T20:53:29.988Z,3.93
2019-03-04T20:56:00.624Z,6.00
2019-03-04T20:58:30.372Z,4.70
2019-03-04T21:01:00.220Z,4.17
2019-03-04T21:03:34.888Z,6.20
2019-03-04T21:06:01.875Z,6.57
2019-03-04T21:08:31.651Z,5.90
2019-03-04T21:11:01.240Z,4.43
2019-03-04T21:13:35.553Z,4.07
2019-03-04T21:16:02.135Z,4.40
2019-03-04T21:18:31.884Z,4.67
2019-03-04T21:21:01.907Z,4.93
2019-03-04T21:23:31.555Z,7.03
2019-03-04T21:26:07.823Z,3.47
2019-03-04T21:28:45.986Z,6.17
2019-03-04T21:31:37.984Z,3.70
2019-03-04T21:34:11.419Z,4.20
2019-03-04T21:36:53.344Z,3.50
2019-03-04T21:39:36.558Z,5.33
2019-03-04T21:42:12.034Z,3.40
2019-03-04T21:45:03.003Z,5.20
2019-03-04T21:47:41.273Z,3.07
2019-03-04T21:50:19.362Z,4.67
2019-03-04T21:52:54.755Z,2.63
2019-03-04T21:55:32.824Z,3.60
2019-03-04T21:58:02.455Z,4.30
2019-03-04T22:00:34.735Z,4.47
2019-03-04T22:03:08.065Z,4.20
2019-03-04T22:05:38.266Z,3.80
2019-03-04T22:08:08.014Z,3.00
2019-03-04T22:10:37.622Z,3.23
2019-03-04T22:13:07.598Z,3.23
2019-03-04T22:15:37.154Z,4.13
2019-03-04T22:18:07.043Z,5.93
2019-03-04T22:20:38.662Z,5.60
2019-03-04T22:23:08.206Z,3.77
2019-03-04T22:25:37.718Z,3.50
2019-03-04T22:28:07.252Z,4.70
2019-03-04T22:30:36.774Z,5.60
2019-03-04T22:33:06.366Z,5.73
2019-03-04T22:35:35.937Z,4.97
2019-03-04T22:38:05.568Z,3.97
2019-03-04T22:40:35.059Z,6.23
2019-03-04T22:43:04.609Z,3.73
2019-03-04T22:45:34.180Z,2.90
2019-03-04T22:48:03.681Z,3.50
2019-03-04T22:50:34.291Z,4.83
2019-03-04T22:53:03.878Z,3.40
2019-03-04T22:55:40.342Z,3.33
2019-03-04T22:58:09.877Z,4.90
2019-03-04T23:00:49.663Z,3.23
2019-03-04T23:03:21.371Z,3.40
2019-03-04T23:06:00.205Z,3.33
2019-03-04T23:08:32.459Z,9.90
2019-03-04T23:11:03.045Z,4.77
2019-03-04T23:13:50.683Z,4.97
2019-03-04T23:16:23.499Z,3.17
2019-03-04T23:18:53.008Z,3.93
2019-03-04T23:21:22.547Z,4.30
2019-03-04T23:23:51.968Z,3.70
2019-03-04T23:26:22.088Z,7.97
2019-03-04T23:28:51.523Z,3.87
2019-03-04T23:31:20.935Z,3.47
2019-03-04T23:33:50.369Z,5.27
2019-03-04T23:36:19.799Z,3.20
2019-03-04T23:38:49.204Z,5.57
2019-03-04T23:41:18.707Z,3.80
2019-03-04T23:43:48.197Z,3.53
2019-03-04T23:46:17.627Z,3.03
2019-03-04T23:48:47.046Z,4.83
2019-03-04T23:51:16.550Z,3.33
2019-03-04T23:53:45.991Z,5.33
2019-03-04T23:56:15.975Z,3.77
2019-03-04T23:58:45.371Z,3.83
